Time;durP1;ratioP1;P1;durP2;ratioP2;P2;SDS_P1;SDS_P2;PMS_P1;PMS_P2;Temp;Humidity;BMP_temperature;BMP_pressure;BME280_temperature;BME280_humidity;BME280_pressure;Samples;Min_cycle;Max_cycle;Signal;HPM_P1;HPM_P2
2023/08/23 00:01:57;;;;;;;4.38;2.53;;;16.50;99.90;;;;;;5002076;28;39504;-77
2023/08/23 00:04:23;;;;;;;2.85;2.35;;;16.50;99.90;;;;;;4997493;28;38084;-77
2023/08/23 00:06:49;;;;;;;3.83;2.45;;;16.40;99.90;;;;;;5000606;28;37175;-77
2023/08/23 00:09:16;;;;;;;2.60;2.35;;;16.40;99.90;;;;;;5000902;28;39881;-77
2023/08/23 00:11:43;;;;;;;3.42;2.60;;;16.40;99.90;;;;;;4995933;28;39821;-76
2023/08/23 00:14:09;;;;;;;3.03;2.00;;;16.40;99.90;;;;;;5005020;28;38090;-77
2023/08/23 00:16:36;;;;;;;5.50;2.38;;;16.30;99.90;;;;;;5012318;28;38200;-77
2023/08/23 00:19:02;;;;;;;2.40;2.17;;;16.30;99.90;;;;;;5009641;28;38410;-77
2023/08/23 00:21:28;;;;;;;3.78;2.58;;;16.30;99.90;;;;;;5003268;28;37003;-77
2023/08/23 00:23:55;;;;;;;4.10;2.78;;;16.30;99.90;;;;;;5007057;28;37856;-77
2023/08/23 00:26:21;;;;;;;3.35;2.30;;;16.30;99.90;;;;;;5007166;28;36365;-77
2023/08/23 00:28:47;;;;;;;2.88;2.50;;;16.30;99.90;;;;;;5001419;28;38635;-77
2023/08/23 00:31:14;;;;;;;4.70;3.28;;;16.40;99.90;;;;;;5006716;28;39290;-77
2023/08/23 00:33:40;;;;;;;4.38;2.97;;;16.40;99.90;;;;;;5008299;28;36883;-77
2023/08/23 00:36:07;;;;;;;3.88;2.67;;;16.40;99.90;;;;;;5007806;28;37250;-75
2023/08/23 00:38:33;;;;;;;4.30;2.70;;;16.40;99.90;;;;;;5004809;28;39189;-77
2023/08/23 00:40:59;;;;;;;3.25;2.50;;;16.40;99.90;;;;;;5005293;28;39194;-77
2023/08/23 00:43:25;;;;;;;3.95;2.67;;;16.30;99.90;;;;;;4997946;28;36930;-76
2023/08/23 00:45:51;;;;;;;4.65;2.35;;;16.30;99.90;;;;;;4998886;28;36430;-77
2023/08/23 00:48:18;;;;;;;5.03;3.00;;;16.30;99.90;;;;;;4996684;28;40086;-77
2023/08/23 00:50:45;;;;;;;5.07;2.67;;;16.30;99.90;;;;;;4997648;28;37070;-77
2023/08/23 00:53:13;;;;;;;3.30;2.88;;;16.30;99.90;;;;;;4992930;28;38095;-77
2023/08/23 00:55:40;;;;;;;5.20;3.00;;;16.30;99.90;;;;;;4999789;28;37349;-77
2023/08/23 00:58:07;;;;;;;3.83;3.05;;;16.40;99.90;;;;;;5000215;28;37605;-76
2023/08/23 01:03:14;;;;;;;6.30;3.58;;;16.40;99.90;;;;;;5261724;23;20086;-74
2023/08/23 01:05:40;;;;;;;4.43;3.20;;;16.40;99.90;;;;;;4994381;28;36889;-73
2023/08/23 01:08:18;;;;;;;5.53;3.25;;;16.40;99.90;;;;;;4995440;28;37572;-73
2023/08/23 01:10:54;;;;;;;4.07;3.10;;;16.40;99.90;;;;;;4999531;28;37560;-73
2023/08/23 01:13:37;;;;;;;6.70;3.92;;;16.50;99.90;;;;;;5003013;28;38245;-73
2023/08/23 01:16:08;;;;;;;6.07;3.20;;;16.40;99.90;;;;;;5005232;28;35988;-74
2023/08/23 01:18:36;;;;;;;4.68;3.42;;;16.50;99.90;;;;;;5007593;28;37736;-73
2023/08/23 01:21:04;;;;;;;5.72;4.03;;;16.50;99.90;;;;;;5005200;28;38604;-73
2023/08/23 01:23:31;;;;;;;5.68;3.75;;;16.50;99.90;;;;;;5004973;28;38013;-74
2023/08/23 01:25:58;;;;;;;5.03;3.53;;;16.50;99.90;;;;;;5016178;28;36097;-73
2023/08/23 01:28:24;;;;;;;5.78;3.97;;;16.40;99.90;;;;;;5005339;28;38424;-74
2023/08/23 01:30:50;;;;;;;4.50;3.40;;;16.40;99.90;;;;;;5002395;28;37263;-74
2023/08/23 01:33:35;;;;;;;4.50;3.72;;;16.40;99.90;;;;;;5006594;28;37012;-73
2023/08/23 01:36:25;;;;;;;5.82;4.00;;;16.40;99.90;;;;;;5003381;28;36287;-73
2023/08/23 01:38:52;;;;;;;5.47;3.97;;;16.40;99.90;;;;;;5003508;28;37951;-74
2023/08/23 01:41:18;;;;;;;5.10;3.55;;;16.40;99.90;;;;;;5001696;28;37247;-73
2023/08/23 01:43:46;;;;;;;6.18;4.65;;;16.40;99.90;;;;;;5003244;28;38832;-74
2023/08/23 01:46:13;;;;;;;5.38;4.25;;;16.40;99.90;;;;;;4995914;28;36391;-73
2023/08/23 01:48:39;;;;;;;4.20;3.50;;;16.40;99.90;;;;;;4998854;28;39476;-74
2023/08/23 01:51:06;;;;;;;4.53;3.53;;;16.30;99.90;;;;;;4997153;28;36376;-73
2023/08/23 01:53:32;;;;;;;4.60;3.83;;;16.30;99.90;;;;;;4998383;28;37110;-74
2023/08/23 01:56:01;;;;;;;4.70;3.03;;;16.30;99.90;;;;;;4995538;28;37242;-75
2023/08/23 01:58:27;;;;;;;6.43;3.88;;;16.30;99.90;;;;;;4996830;28;47176;-73
2023/08/23 02:00:53;;;;;;;4.38;3.28;;;16.30;99.90;;;;;;4998583;28;37175;-74
2023/08/23 02:03:19;;;;;;;4.43;3.40;;;16.20;99.90;;;;;;4999084;28;37050;-73
2023/08/23 02:05:46;;;;;;;5.15;3.90;;;16.20;99.90;;;;;;5003313;28;36677;-74
2023/08/23 02:08:14;;;;;;;4.82;4.00;;;16.20;99.90;;;;;;4998082;28;37400;-74
2023/08/23 02:10:42;;;;;;;8.50;5.40;;;16.20;99.90;;;;;;4993005;28;37679;-73
2023/08/23 02:13:08;;;;;;;7.25;5.97;;;16.20;99.90;;;;;;5012082;28;37394;-74
2023/08/23 02:15:34;;;;;;;16.35;10.07;;;16.20;99.90;;;;;;4998757;28;35709;-73
2023/08/23 02:18:00;;;;;;;9.73;7.45;;;16.20;99.90;;;;;;4997389;28;39320;-74
2023/08/23 02:20:26;;;;;;;10.98;7.43;;;16.20;99.90;;;;;;5010862;28;36414;-74
2023/08/23 02:22:52;;;;;;;11.30;8.05;;;16.30;99.90;;;;;;5000117;28;37062;-74
2023/08/23 02:25:18;;;;;;;12.35;8.90;;;16.30;99.90;;;;;;4997336;28;36208;-74
2023/08/23 02:27:44;;;;;;;10.20;8.13;;;16.20;99.90;;;;;;4995763;28;37780;-74
2023/08/23 02:30:13;;;;;;;15.73;10.27;;;16.30;99.90;;;;;;4993792;28;37099;-74
2023/08/23 02:32:39;;;;;;;11.05;9.02;;;16.30;99.90;;;;;;4995658;28;37711;-73
2023/08/23 02:35:06;;;;;;;18.13;10.70;;;16.30;99.90;;;;;;4994122;28;37025;-74
2023/08/23 02:37:32;;;;;;;13.68;9.73;;;16.30;99.90;;;;;;4998142;28;38889;-74
2023/08/23 02:39:58;;;;;;;11.02;8.35;;;16.30;99.90;;;;;;4999127;28;39200;-73
2023/08/23 02:42:24;;;;;;;11.60;9.32;;;16.40;99.90;;;;;;4998524;28;37940;-74
2023/08/23 02:44:50;;;;;;;12.88;9.27;;;16.40;99.90;;;;;;4999410;28;36484;-74
2023/08/23 02:47:16;;;;;;;13.25;9.82;;;16.40;99.90;;;;;;4996457;28;38956;-74
2023/08/23 02:49:42;;;;;;;15.05;10.32;;;16.40;99.90;;;;;;4997535;28;38446;-74
2023/08/23 02:52:08;;;;;;;15.85;10.65;;;16.40;99.90;;;;;;5003459;28;38872;-74
2023/08/23 02:54:34;;;;;;;14.55;10.32;;;16.50;99.90;;;;;;4999996;28;38484;-74
2023/08/23 02:57:01;;;;;;;19.73;11.70;;;16.50;99.90;;;;;;4998286;28;37618;-74
2023/08/23 02:59:27;;;;;;;16.35;12.05;;;16.50;99.90;;;;;;4997993;28;45957;-74
2023/08/23 03:01:53;;;;;;;17.50;11.80;;;16.60;99.90;;;;;;4998854;28;37684;-74
2023/08/23 03:04:19;;;;;;;17.98;12.30;;;16.60;99.90;;;;;;4993760;28;36234;-74
2023/08/23 03:06:45;;;;;;;20.35;13.52;;;16.70;99.90;;;;;;4997505;28;37737;-73
2023/08/23 03:09:11;;;;;;;15.27;10.93;;;16.70;99.90;;;;;;4991561;28;38264;-73
2023/08/23 03:11:37;;;;;;;16.48;11.38;;;16.60;99.90;;;;;;5013753;28;39159;-74
2023/08/23 03:14:03;;;;;;;16.25;12.15;;;16.60;99.90;;;;;;4995115;28;36052;-73
2023/08/23 03:16:29;;;;;;;17.73;12.35;;;16.60;99.90;;;;;;4998119;28;39584;-73
2023/08/23 03:18:56;;;;;;;19.42;12.05;;;16.50;99.90;;;;;;5001523;28;37308;-73
2023/08/23 03:21:22;;;;;;;19.30;13.57;;;16.50;99.90;;;;;;4996903;28;37089;-74
2023/08/23 03:23:48;;;;;;;15.95;12.68;;;16.50;99.90;;;;;;5002986;28;37407;-74
2023/08/23 03:26:14;;;;;;;18.75;13.38;;;16.50;99.90;;;;;;4995603;28;37965;-74
2023/08/23 03:28:40;;;;;;;16.73;12.10;;;16.50;99.90;;;;;;4998923;28;37412;-74
2023/08/23 03:31:06;;;;;;;17.60;11.52;;;16.50;99.90;;;;;;4997515;28;36908;-74
2023/08/23 03:33:32;;;;;;;18.98;13.05;;;16.40;99.90;;;;;;4999520;28;37727;-74
2023/08/23 03:35:58;;;;;;;18.88;13.13;;;16.40;99.90;;;;;;4989775;28;39049;-73
2023/08/23 03:38:24;;;;;;;21.38;13.10;;;16.40;99.90;;;;;;4995188;28;38641;-74
2023/08/23 03:40:52;;;;;;;19.23;14.35;;;16.40;99.90;;;;;;4990905;28;37879;-74
2023/08/23 03:43:18;;;;;;;18.35;13.45;;;16.40;99.90;;;;;;5031141;28;36639;-74
2023/08/23 03:45:48;;;;;;;30.30;19.42;;;16.40;99.90;;;;;;5000649;28;37931;-74
2023/08/23 03:48:15;;;;;;;27.25;18.63;;;16.40;99.90;;;;;;4991048;28;37762;-74
2023/08/23 03:50:42;;;;;;;30.20;18.65;;;16.40;99.90;;;;;;4996374;28;37908;-73
2023/08/23 03:53:08;;;;;;;26.10;18.08;;;16.40;99.90;;;;;;4997843;28;37600;-74
2023/08/23 03:55:36;;;;;;;31.08;19.60;;;16.40;99.90;;;;;;4996280;28;38408;-73
2023/08/23 03:58:06;;;;;;;29.80;19.02;;;16.40;99.90;;;;;;4997057;28;38857;-73
2023/08/23 04:00:32;;;;;;;35.60;21.65;;;16.40;99.90;;;;;;4996684;28;38300;-74
2023/08/23 04:03:01;;;;;;;39.88;23.38;;;16.50;99.90;;;;;;4996178;28;37676;-73
2023/08/23 04:05:27;;;;;;;33.97;22.63;;;16.50;99.90;;;;;;4992618;28;39031;-74
2023/08/23 04:07:53;;;;;;;38.47;24.35;;;16.60;99.90;;;;;;4999009;28;38629;-74
2023/08/23 04:10:19;;;;;;;37.00;23.02;;;16.60;99.90;;;;;;5001714;28;38320;-73
2023/08/23 04:12:45;;;;;;;32.13;21.63;;;16.70;99.90;;;;;;5002573;28;37765;-74
2023/08/23 04:15:11;;;;;;;33.67;21.70;;;16.70;99.90;;;;;;4998290;28;36668;-74
2023/08/23 04:17:38;;;;;;;37.85;22.77;;;16.60;99.90;;;;;;4999250;28;38177;-74
2023/08/23 04:20:06;;;;;;;36.33;23.00;;;16.70;99.90;;;;;;4999353;28;38010;-73
2023/08/23 04:22:32;;;;;;;38.22;24.52;;;16.70;99.90;;;;;;4997242;28;38824;-74
2023/08/23 04:24:58;;;;;;;35.47;22.90;;;16.70;99.90;;;;;;4999417;28;37927;-74
2023/08/23 04:27:24;;;;;;;32.50;22.70;;;16.70;99.90;;;;;;4996320;28;36472;-74
2023/08/23 04:29:50;;;;;;;31.63;22.30;;;16.80;99.90;;;;;;4999341;28;37373;-73
2023/08/23 04:32:16;;;;;;;35.90;22.98;;;16.70;99.90;;;;;;4999580;28;37306;-73
2023/08/23 04:34:43;;;;;;;42.60;26.63;;;16.70;99.90;;;;;;4996244;28;37689;-73
2023/08/23 04:37:09;;;;;;;41.15;25.83;;;16.70;99.90;;;;;;4997223;28;36006;-74
2023/08/23 04:39:35;;;;;;;37.72;24.40;;;16.70;99.90;;;;;;5000110;28;37469;-74
2023/08/23 04:42:02;;;;;;;34.83;23.55;;;16.70;99.90;;;;;;5000260;28;36224;-74
2023/08/23 04:44:29;;;;;;;29.83;20.38;;;16.70;99.90;;;;;;4999827;28;38855;-74
2023/08/23 04:46:55;;;;;;;44.40;25.65;;;16.80;99.90;;;;;;4994016;28;38229;-73
2023/08/23 04:49:21;;;;;;;57.45;30.48;;;16.80;99.90;;;;;;4996998;28;38169;-73
2023/08/23 04:51:47;;;;;;;49.85;28.77;;;16.90;99.90;;;;;;4998711;28;37910;-73
2023/08/23 04:54:13;;;;;;;35.83;23.20;;;16.90;99.90;;;;;;4999876;28;39466;-73
2023/08/23 04:56:39;;;;;;;35.40;22.83;;;16.90;99.90;;;;;;5001886;28;37763;-73
2023/08/23 04:59:05;;;;;;;36.42;23.48;;;16.90;99.90;;;;;;5012738;28;36940;-73
2023/08/23 05:01:31;;;;;;;35.05;24.10;;;17.00;99.90;;;;;;4999285;28;37823;-73
2023/08/23 05:03:58;;;;;;;41.13;26.50;;;17.00;99.90;;;;;;5001142;28;38588;-74
2023/08/23 05:06:24;;;;;;;36.53;23.08;;;17.00;99.90;;;;;;5002316;28;37337;-74
2023/08/23 05:08:50;;;;;;;49.55;26.90;;;17.00;99.90;;;;;;5000977;28;37821;-75
2023/08/23 05:11:16;;;;;;;56.33;28.95;;;17.10;99.90;;;;;;4997204;28;36833;-75
2023/08/23 05:13:42;;;;;;;49.25;28.08;;;17.20;99.90;;;;;;4999293;28;39107;-73
2023/08/23 05:16:08;;;;;;;55.20;29.42;;;17.20;99.90;;;;;;4999915;28;39257;-74
2023/08/23 05:18:34;;;;;;;46.05;27.20;;;17.30;99.90;;;;;;5000637;28;36728;-75
2023/08/23 05:21:02;;;;;;;46.10;25.55;;;17.30;99.90;;;;;;5002248;28;37986;-74
2023/08/23 05:23:28;;;;;;;40.65;24.45;;;17.40;99.90;;;;;;5000173;28;48504;-75
2023/08/23 05:25:55;;;;;;;44.03;25.60;;;17.40;99.90;;;;;;5008238;28;38206;-75
2023/08/23 05:28:22;;;;;;;44.13;26.15;;;17.40;99.90;;;;;;5002781;28;38558;-74
2023/08/23 05:30:50;;;;;;;43.10;25.77;;;17.50;99.90;;;;;;5004277;28;36241;-74
2023/08/23 05:33:16;;;;;;;43.10;26.30;;;17.50;99.90;;;;;;4996190;28;38552;-74
2023/08/23 05:35:46;;;;;;;47.17;25.45;;;17.60;99.90;;;;;;4998132;28;37360;-74
2023/08/23 05:38:12;;;;;;;52.30;26.38;;;17.60;99.90;;;;;;5000810;28;37364;-75
2023/08/23 05:40:39;;;;;;;42.72;27.67;;;17.60;99.90;;;;;;5018606;28;36547;-74
2023/08/23 05:43:06;;;;;;;49.88;27.95;;;17.60;99.90;;;;;;5007567;28;38616;-75
2023/08/23 05:45:32;;;;;;;42.17;25.98;;;17.60;99.90;;;;;;5008253;28;39185;-74
2023/08/23 05:47:59;;;;;;;53.92;27.80;;;17.60;99.90;;;;;;5001239;28;37076;-75
2023/08/23 05:50:25;;;;;;;36.40;23.60;;;17.60;99.90;;;;;;5000839;28;36593;-74
2023/08/23 05:52:51;;;;;;;38.42;24.25;;;17.70;99.90;;;;;;4994182;28;38609;-75
2023/08/23 05:55:17;;;;;;;40.75;24.52;;;17.70;99.90;;;;;;4971292;28;36947;-75
2023/08/23 05:57:44;;;;;;;36.85;23.48;;;17.70;99.90;;;;;;4997042;28;37165;-75
2023/08/23 06:00:10;;;;;;;43.33;24.42;;;17.70;99.90;;;;;;4986591;28;36727;-74
2023/08/23 06:02:37;;;;;;;41.90;24.10;;;17.80;99.90;;;;;;4982074;28;37915;-74
2023/08/23 06:05:05;;;;;;;51.33;26.95;;;17.90;99.90;;;;;;4981512;28;38522;-73
2023/08/23 06:07:32;;;;;;;39.65;24.80;;;17.90;99.90;;;;;;4983083;28;38131;-74
2023/08/23 06:09:58;;;;;;;47.35;26.42;;;17.90;99.90;;;;;;4980803;28;36451;-73
2023/08/23 06:12:25;;;;;;;40.85;24.02;;;18.00;99.90;;;;;;4977770;28;37946;-74
2023/08/23 06:14:51;;;;;;;40.67;23.95;;;18.00;99.90;;;;;;4980449;28;38943;-73
2023/08/23 06:17:17;;;;;;;43.45;25.70;;;18.10;99.90;;;;;;4977063;28;36949;-74
2023/08/23 06:19:43;;;;;;;50.25;27.33;;;18.10;99.90;;;;;;4986094;28;37517;-73
2023/08/23 06:22:10;;;;;;;44.00;26.80;;;18.10;99.90;;;;;;4980389;28;37729;-74
2023/08/23 06:24:36;;;;;;;48.70;26.48;;;18.10;99.90;;;;;;4979891;28;37894;-74
2023/08/23 06:27:02;;;;;;;48.92;28.30;;;18.10;99.90;;;;;;4981565;28;35993;-74
2023/08/23 06:29:28;;;;;;;41.10;26.33;;;18.20;99.90;;;;;;4981187;28;36288;-75
2023/08/23 06:31:54;;;;;;;49.55;27.92;;;18.20;99.90;;;;;;4982849;28;38612;-73
2023/08/23 06:34:21;;;;;;;39.70;25.27;;;18.30;99.90;;;;;;4983147;28;38266;-74
2023/08/23 06:36:47;;;;;;;48.33;27.55;;;18.30;99.90;;;;;;4984811;28;39081;-73
2023/08/23 06:39:13;;;;;;;53.30;28.23;;;18.40;99.90;;;;;;4982965;28;38034;-73
2023/08/23 06:41:39;;;;;;;54.28;31.35;;;18.40;99.90;;;;;;4982182;28;38453;-72
2023/08/23 06:44:05;;;;;;;46.53;26.77;;;18.40;99.90;;;;;;4985896;28;38102;-72
2023/08/23 06:46:31;;;;;;;44.05;26.60;;;18.40;99.90;;;;;;4976311;28;39486;-72
2023/08/23 06:48:58;;;;;;;40.85;23.73;;;18.40;99.90;;;;;;4980681;28;36172;-72
2023/08/23 06:51:27;;;;;;;36.28;23.65;;;18.40;99.90;;;;;;4981655;28;38945;-73
2023/08/23 06:53:53;;;;;;;35.95;22.70;;;18.40;99.90;;;;;;4982303;28;37689;-73
2023/08/23 06:56:20;;;;;;;38.88;25.67;;;18.40;99.90;;;;;;4986281;28;36334;-73
2023/08/23 06:58:46;;;;;;;36.90;23.63;;;18.50;99.90;;;;;;4985137;28;37259;-72
2023/08/23 07:01:16;;;;;;;38.17;23.48;;;18.50;99.90;;;;;;4981668;28;37386;-73
2023/08/23 07:03:43;;;;;;;39.72;24.05;;;18.50;99.90;;;;;;5001285;28;39390;-73
2023/08/23 07:06:12;;;;;;;31.02;20.55;;;18.50;99.90;;;;;;4982835;28;37963;-73
2023/08/23 07:08:38;;;;;;;45.20;23.88;;;18.60;99.90;;;;;;4975473;28;37868;-73
2023/08/23 07:11:04;;;;;;;32.55;21.60;;;18.60;99.90;;;;;;4976372;28;38811;-73
2023/08/23 07:13:30;;;;;;;37.85;22.25;;;18.60;99.90;;;;;;4980075;28;37776;-72
2023/08/23 07:15:56;;;;;;;36.22;20.98;;;18.50;99.90;;;;;;4982126;28;36981;-72
2023/08/23 07:18:22;;;;;;;32.05;20.25;;;18.60;99.90;;;;;;4988234;28;37669;-72
2023/08/23 07:20:48;;;;;;;35.90;21.48;;;18.60;99.90;;;;;;4980905;28;38111;-72
2023/08/23 07:23:15;;;;;;;38.47;20.25;;;18.60;99.90;;;;;;4980148;28;38342;-73
2023/08/23 07:25:42;;;;;;;42.47;21.85;;;18.60;99.90;;;;;;4979326;28;38225;-72
2023/08/23 07:28:08;;;;;;;35.20;20.95;;;18.70;99.90;;;;;;4985777;28;35216;-72
2023/08/23 07:30:34;;;;;;;36.20;20.40;;;18.70;99.90;;;;;;4982459;28;39858;-73
2023/08/23 07:33:01;;;;;;;43.25;21.60;;;18.90;99.90;;;;;;4984613;28;38711;-73
2023/08/23 07:35:27;;;;;;;36.03;21.65;;;18.80;99.90;;;;;;4981520;28;47012;-73
2023/08/23 07:37:53;;;;;;;38.40;23.63;;;18.70;99.90;;;;;;4984152;28;37357;-73
2023/08/23 07:40:19;;;;;;;39.72;22.40;;;18.80;99.90;;;;;;4977196;28;39860;-74
2023/08/23 07:42:45;;;;;;;34.22;21.73;;;18.80;99.90;;;;;;4983006;28;38909;-75
2023/08/23 07:45:11;;;;;;;39.65;21.73;;;18.90;99.90;;;;;;4974406;28;36964;-74
2023/08/23 07:47:38;;;;;;;32.50;20.48;;;19.00;99.90;;;;;;4991434;28;36614;-74
2023/08/23 07:50:05;;;;;;;36.47;22.92;;;19.10;99.90;;;;;;4984242;28;37588;-75
2023/08/23 07:52:31;;;;;;;43.03;23.80;;;19.20;99.90;;;;;;4984595;28;46769;-74
2023/08/23 07:54:57;;;;;;;42.67;23.52;;;19.30;99.90;;;;;;4985908;28;38382;-74
2023/08/23 07:57:23;;;;;;;39.65;23.27;;;19.40;99.90;;;;;;4979940;28;38479;-74
2023/08/23 07:59:49;;;;;;;33.85;22.15;;;19.30;99.90;;;;;;4987421;28;38380;-74
2023/08/23 08:02:16;;;;;;;34.08;23.10;;;19.40;99.90;;;;;;4983816;28;37339;-74
2023/08/23 08:04:43;;;;;;;32.88;21.95;;;19.60;99.90;;;;;;4982226;28;41287;-74
2023/08/23 08:07:09;;;;;;;36.65;21.23;;;19.80;99.90;;;;;;4979906;28;37536;-74
2023/08/23 08:09:35;;;;;;;33.00;20.60;;;19.90;99.90;;;;;;4981743;28;38689;-74
2023/08/23 08:12:01;;;;;;;31.80;21.08;;;19.90;99.90;;;;;;4987353;28;39064;-74
2023/08/23 08:14:27;;;;;;;25.70;18.23;;;20.00;99.90;;;;;;4990002;28;48227;-74
2023/08/23 08:16:53;;;;;;;30.80;17.88;;;20.10;99.90;;;;;;4988216;28;36254;-73
2023/08/23 08:19:19;;;;;;;33.08;20.05;;;20.00;99.90;;;;;;4988022;28;37802;-74
2023/08/23 08:21:47;;;;;;;33.75;19.13;;;20.40;99.90;;;;;;4995218;28;20050;-74
2023/08/23 08:24:13;;;;;;;26.92;18.35;;;20.60;99.90;;;;;;4986710;28;38252;-74
2023/08/23 08:26:39;;;;;;;25.73;17.98;;;20.80;99.90;;;;;;4989694;28;37393;-74
2023/08/23 08:29:05;;;;;;;28.45;19.17;;;20.90;99.90;;;;;;4984010;28;38958;-74
2023/08/23 08:31:31;;;;;;;31.02;18.52;;;20.90;99.90;;;;;;4985533;28;39807;-75
2023/08/23 08:33:59;;;;;;;29.65;17.25;;;20.90;99.90;;;;;;4986676;28;38390;-74
2023/08/23 08:36:25;;;;;;;27.45;18.98;;;21.00;99.90;;;;;;4985629;28;35837;-73
2023/08/23 08:38:51;;;;;;;24.95;17.25;;;21.10;99.90;;;;;;4992086;28;38427;-75
2023/08/23 08:41:18;;;;;;;26.35;17.60;;;21.10;99.90;;;;;;4985564;28;39008;-74
2023/08/23 08:43:44;;;;;;;26.33;15.38;;;21.30;99.90;;;;;;4984517;28;39017;-75
2023/08/23 08:46:10;;;;;;;26.40;16.13;;;21.60;99.90;;;;;;4978442;28;36502;-75
2023/08/23 08:48:36;;;;;;;25.73;17.02;;;21.70;99.90;;;;;;4982793;28;38703;-75
2023/08/23 08:51:03;;;;;;;23.83;15.32;;;21.70;99.90;;;;;;4987832;28;38982;-75
2023/08/23 08:53:32;;;;;;;24.92;15.30;;;21.80;99.90;;;;;;4988334;28;37318;-75
2023/08/23 08:55:59;;;;;;;25.15;15.32;;;22.00;99.90;;;;;;4981067;28;37710;-75
2023/08/23 08:58:26;;;;;;;22.58;15.73;;;22.10;99.90;;;;;;4983629;28;40054;-75
2023/08/23 09:00:54;;;;;;;17.75;12.05;;;22.10;99.90;;;;;;4982492;28;38222;-75
2023/08/23 09:03:22;;;;;;;18.10;10.93;;;22.50;99.90;;;;;;4999135;28;40128;-77
2023/08/23 09:05:48;;;;;;;18.20;11.43;;;22.70;99.90;;;;;;4977360;28;36428;-78
2023/08/23 09:08:15;;;;;;;19.63;12.52;;;22.90;99.90;;;;;;4983689;28;37957;-77
2023/08/23 09:10:41;;;;;;;22.35;13.18;;;23.20;99.90;;;;;;4979847;28;37881;-77
2023/08/23 09:13:07;;;;;;;21.52;11.73;;;23.10;99.90;;;;;;4986179;28;38594;-77
2023/08/23 09:15:34;;;;;;;16.23;10.27;;;23.10;99.90;;;;;;4983481;28;36447;-76
2023/08/23 09:18:00;;;;;;;16.90;9.45;;;23.40;99.90;;;;;;4986219;28;40293;-76
2023/08/23 09:20:26;;;;;;;19.20;10.93;;;23.60;99.90;;;;;;4987515;28;38773;-76
2023/08/23 09:22:53;;;;;;;19.95;10.75;;;23.60;99.90;;;;;;4985583;28;37037;-76
2023/08/23 09:25:20;;;;;;;20.50;10.45;;;23.60;99.90;;;;;;4983132;28;37331;-77
2023/08/23 09:27:47;;;;;;;17.48;10.25;;;23.90;99.90;;;;;;4981644;28;39808;-76
2023/08/23 09:30:13;;;;;;;15.82;9.02;;;23.70;99.90;;;;;;4980374;28;38956;-76
2023/08/23 09:32:41;;;;;;;20.42;12.27;;;23.80;99.90;;;;;;4987528;28;36719;-76
2023/08/23 09:35:15;;;;;;;21.92;11.40;;;24.00;99.90;;;;;;4989460;28;37072;-76
2023/08/23 09:37:43;;;;;;;18.83;11.60;;;24.20;99.90;;;;;;4985042;28;39441;-76
2023/08/23 09:40:35;;;;;;;18.60;10.65;;;23.90;99.90;;;;;;4985997;28;38779;-76
2023/08/23 09:43:02;;;;;;;;;;;23.90;99.90;;;;;;5003120;28;37556;-76
2023/08/23 09:45:28;;;;;;;15.07;8.27;;;24.10;99.90;;;;;;4979517;28;47343;-76
2023/08/23 09:47:59;;;;;;;14.27;7.70;;;24.30;99.90;;;;;;4981917;28;37571;-76
2023/08/23 09:50:26;;;;;;;10.47;6.87;;;24.60;99.90;;;;;;5009017;28;37787;-76
2023/08/23 09:53:04;;;;;;;9.73;7.70;;;24.80;99.90;;;;;;4984729;28;38687;-77
2023/08/23 09:55:33;;;;;;;12.32;7.70;;;24.80;88.50;;;;;;4981417;28;48429;-77
2023/08/23 09:58:00;;;;;;;11.30;7.50;;;24.70;96.30;;;;;;4981735;28;38048;-76
2023/08/23 10:00:27;;;;;;;12.50;7.15;;;24.70;92.80;;;;;;4998327;28;38040;-76
2023/08/23 10:02:56;;;;;;;9.02;5.38;;;24.60;90.40;;;;;;4982291;28;37401;-80
2023/08/23 10:05:23;;;;;;;9.10;6.03;;;24.60;93.60;;;;;;4981283;28;37457;-77
2023/08/23 10:07:51;;;;;;;12.27;5.97;;;24.80;69.60;;;;;;4977737;28;38727;-77
2023/08/23 10:10:18;;;;;;;8.88;5.18;;;25.20;79.70;;;;;;4982589;28;38861;-77
2023/08/23 10:12:51;;;;;;;14.00;6.60;;;25.30;88.00;;;;;;4985529;28;36680;-78
2023/08/23 10:15:24;;;;;;;8.60;5.57;;;25.10;61.40;;;;;;4984228;28;37383;-76
2023/08/23 10:17:51;;;;;;;11.18;5.50;;;25.20;91.70;;;;;;4980185;28;40353;-75
2023/08/23 10:20:17;;;;;;;8.68;5.10;;;25.50;62.40;;;;;;4980559;28;38738;-74
2023/08/23 10:22:43;;;;;;;10.75;5.22;;;25.40;71.90;;;;;;4985239;28;37559;-75
2023/08/23 10:25:21;;;;;;;11.02;4.78;;;25.40;40.30;;;;;;4984470;28;37053;-77
2023/08/23 10:27:51;;;;;;;8.40;4.88;;;25.30;77.70;;;;;;4981052;28;38599;-75
2023/08/23 10:30:28;;;;;;;7.43;4.53;;;25.40;67.60;;;;;;4987025;28;39828;-74
2023/08/23 10:33:06;;;;;;;7.03;3.42;;;25.50;33.30;;;;;;4984625;28;38328;-77
2023/08/23 10:35:33;;;;;;;6.43;3.17;;;25.60;27.00;;;;;;4986118;28;47843;-76
2023/08/23 10:38:00;;;;;;;7.32;3.50;;;25.60;19.60;;;;;;4981420;28;37928;-77
2023/08/23 10:40:31;;;;;;;6.70;2.28;;;25.50;14.40;;;;;;4981315;28;38873;-76
2023/08/23 10:43:02;;;;;;;6.47;2.25;;;25.70;3.00;;;;;;4980711;28;39415;-75
2023/08/23 10:45:28;;;;;;;4.20;1.80;;;25.60;16.30;;;;;;4983212;28;47313;-76
2023/08/23 10:47:55;;;;;;;5.75;2.30;;;25.80;12.90;;;;;;4979935;28;37731;-76
2023/08/23 10:50:22;;;;;;;3.72;1.52;;;25.90;1.00;;;;;;4981661;28;39211;-74
2023/08/23 10:52:51;;;;;;;4.35;1.85;;;26.00;15.10;;;;;;4982758;28;37163;-73
2023/08/23 10:55:17;;;;;;;6.00;1.63;;;26.40;24.90;;;;;;4979965;28;36150;-76
2023/08/23 10:57:44;;;;;;;4.40;1.90;;;26.50;1.00;;;;;;4986387;28;38892;-75
2023/08/23 11:00:11;;;;;;;2.97;1.25;;;26.60;1.00;;;;;;4981838;28;37916;-74
2023/08/23 11:02:37;;;;;;;6.72;2.35;;;26.70;7.30;;;;;;4985487;28;39151;-75
2023/08/23 11:05:04;;;;;;;4.50;1.55;;;26.90;1.00;;;;;;4985517;28;35915;-74
2023/08/23 11:07:31;;;;;;;8.63;1.95;;;27.10;1.00;;;;;;5003754;28;47137;-75
2023/08/23 11:09:57;;;;;;;4.78;1.40;;;27.40;1.00;;;;;;4980713;28;38419;-75
2023/08/23 11:12:23;;;;;;;3.97;1.35;;;27.40;1.00;;;;;;4974990;28;39177;-75
2023/08/23 11:14:49;;;;;;;5.57;1.40;;;27.50;1.00;;;;;;5009335;28;34945;-74
2023/08/23 11:17:16;;;;;;;3.97;1.48;;;27.70;1.00;;;;;;4982916;28;38612;-75
2023/08/23 11:19:42;;;;;;;4.38;2.00;;;27.70;1.00;;;;;;4991065;28;39118;-74
2023/08/23 11:22:09;;;;;;;4.53;2.05;;;27.60;1.00;;;;;;4985713;28;38551;-75
2023/08/23 11:24:38;;;;;;;5.93;2.08;;;27.40;1.00;;;;;;4984567;28;37354;-74
2023/08/23 11:27:12;;;;;;;4.05;1.70;;;27.40;1.00;;;;;;4981674;28;39569;-74
2023/08/23 11:29:40;;;;;;;3.00;1.40;;;27.60;1.00;;;;;;4983882;28;39841;-75
2023/08/23 11:32:06;;;;;;;6.18;1.60;;;27.40;1.00;;;;;;4988191;28;36985;-74
2023/08/23 11:34:33;;;;;;;4.80;1.80;;;27.10;1.00;;;;;;4984917;28;37836;-74
2023/08/23 11:36:59;;;;;;;4.95;2.33;;;26.70;1.00;;;;;;4986483;28;39580;-74
2023/08/23 11:39:25;;;;;;;5.75;2.10;;;26.30;1.00;;;;;;4983787;28;39560;-74
2023/08/23 11:41:51;;;;;;;4.55;1.95;;;25.90;1.00;;;;;;4990518;28;37581;-74
2023/08/23 11:44:17;;;;;;;4.13;1.70;;;26.20;1.00;;;;;;4985908;28;36213;-74
2023/08/23 11:46:43;;;;;;;4.60;1.38;;;26.40;1.00;;;;;;4985326;28;42217;-74
2023/08/23 11:49:10;;;;;;;6.03;1.17;;;26.70;1.00;;;;;;4981215;28;37546;-74
2023/08/23 11:51:49;;;;;;;4.32;1.67;;;27.00;1.00;;;;;;4987137;28;38112;-74
2023/08/23 11:54:22;;;;;;;2.58;1.20;;;27.50;1.00;;;;;;4990467;28;36086;-75
2023/08/23 11:56:48;;;;;;;2.53;1.45;;;27.80;6.00;;;;;;4987891;28;38573;-74
2023/08/23 11:59:14;;;;;;;3.97;1.10;;;28.00;1.00;;;;;;4978414;28;40566;-74
2023/08/23 12:01:43;;;;;;;5.85;1.45;;;27.80;1.00;;;;;;4984890;28;37310;-75
2023/08/23 12:04:11;;;;;;;4.05;1.38;;;27.70;1.00;;;;;;4956393;28;1361821;-74
2023/08/23 12:06:38;;;;;;;3.58;1.25;;;27.40;1.00;;;;;;4988060;28;38087;-75
2023/08/23 12:09:04;;;;;;;3.42;1.50;;;27.10;1.00;;;;;;4989410;28;39600;-75
2023/08/23 12:11:32;;;;;;;3.78;1.55;;;27.20;1.00;;;;;;4985656;28;36975;-75
2023/08/23 12:14:03;;;;;;;3.38;1.58;;;27.30;1.00;;;;;;4989968;28;37012;-74
2023/08/23 12:16:33;;;;;;;6.13;1.80;;;27.30;1.00;;;;;;4980667;28;47023;-75
2023/08/23 12:18:59;;;;;;;4.60;1.60;;;27.40;1.00;;;;;;4986250;28;37936;-75
2023/08/23 12:21:25;;;;;;;4.68;1.45;;;26.80;1.00;;;;;;4989968;28;37562;-74
2023/08/23 12:23:51;;;;;;;4.40;1.23;;;26.90;1.00;;;;;;4986793;28;36344;-74
2023/08/23 12:26:22;;;;;;;2.92;1.10;;;27.20;1.00;;;;;;4987630;28;40477;-74
2023/08/23 12:28:49;;;;;;;3.20;1.30;;;27.20;1.00;;;;;;4981874;28;37618;-74
2023/08/23 12:31:16;;;;;;;5.03;1.50;;;27.40;1.00;;;;;;4982336;28;38260;-74
2023/08/23 12:33:45;;;;;;;4.00;1.23;;;27.50;1.00;;;;;;4987970;28;40464;-74
2023/08/23 12:36:13;;;;;;;4.93;1.10;;;27.70;1.00;;;;;;4985957;28;38861;-74
2023/08/23 12:38:39;;;;;;;2.70;1.10;;;27.70;1.00;;;;;;4990405;28;38183;-74